sensor_id;sensor_type;location;lat;lon;timestamp;pressure;altitude;pressure_sealevel;temperature;humidity
5703;BME280;2876;51.738;10.050;2023-03-19T00:04:59;98927.66;;;11.42;100.00
5703;BME280;2876;51.738;10.050;2023-03-19T00:11:07;98931.13;;;11.50;100.00
5703;BME280;2876;51.738;10.050;2023-03-19T00:17:09;98933.38;;;11.53;100.00
5703;BME280;2876;51.738;10.050;2023-03-19T00:23:12;98931.72;;;11.52;100.00
5703;BME280;2876;51.738;10.050;2023-03-19T00:29:14;98934.00;;;11.55;100.00
5703;BME280;2876;51.738;10.050;2023-03-19T00:35:16;98939.69;;;11.65;99.86
5703;BME280;2876;51.738;10.050;2023-03-19T00:41:19;98933.72;;;11.31;100.00
5703;BME280;2876;51.738;10.050;2023-03-19T00:47:22;98937.81;;;11.34;100.00
5703;BME280;2876;51.738;10.050;2023-03-19T00:53:24;98935.94;;;11.41;100.00
5703;BME280;2876;51.738;10.050;2023-03-19T00:59:27;98938.16;;;11.44;100.00
5703;BME280;2876;51.738;10.050;2023-03-19T01:05:29;98939.25;;;11.36;100.00
5703;BME280;2876;51.738;10.050;2023-03-19T01:11:31;98944.63;;;11.36;100.00
5703;BME280;2876;51.738;10.050;2023-03-19T01:17:33;98943.84;;;11.23;100.00
5703;BME280;2876;51.738;10.050;2023-03-19T01:23:35;98945.56;;;11.10;99.96
5703;BME280;2876;51.738;10.050;2023-03-19T01:29:37;98948.09;;;10.92;100.00
5703;BME280;2876;51.738;10.050;2023-03-19T01:35:39;98950.22;;;10.77;100.00
5703;BME280;2876;51.738;10.050;2023-03-19T01:41:42;98954.75;;;10.70;100.00
5703;BME280;2876;51.738;10.050;2023-03-19T01:47:44;98954.34;;;10.66;100.00
5703;BME280;2876;51.738;10.050;2023-03-19T01:53:52;98951.06;;;10.64;100.00
5703;BME280;2876;51.738;10.050;2023-03-19T02:00:00;98957.66;;;10.68;100.00
5703;BME280;2876;51.738;10.050;2023-03-19T02:06:02;98958.66;;;10.67;99.55
5703;BME280;2876;51.738;10.050;2023-03-19T02:12:06;98953.13;;;10.35;100.00
5703;BME280;2876;51.738;10.050;2023-03-19T02:18:10;98941.59;;;10.35;100.00
5703;BME280;2876;51.738;10.050;2023-03-19T02:24:18;98947.97;;;10.01;99.77
5703;BME280;2876;51.738;10.050;2023-03-19T02:30:29;98940.09;;;9.66;99.80
5703;BME280;2876;51.738;10.050;2023-03-19T02:36:40;98939.81;;;9.34;100.00
5703;BME280;2876;51.738;10.050;2023-03-19T02:42:43;98943.56;;;9.47;100.00
5703;BME280;2876;51.738;10.050;2023-03-19T02:48:45;98948.56;;;9.63;100.00
5703;BME280;2876;51.738;10.050;2023-03-19T02:54:47;98941.34;;;9.70;100.00
5703;BME280;2876;51.738;10.050;2023-03-19T03:00:49;98947.53;;;9.64;100.00
5703;BME280;2876;51.738;10.050;2023-03-19T03:06:52;98957.41;;;9.70;100.00
5703;BME280;2876;51.738;10.050;2023-03-19T03:12:55;98955.19;;;9.87;100.00
5703;BME280;2876;51.738;10.050;2023-03-19T03:18:57;98955.19;;;9.87;100.00
5703;BME280;2876;51.738;10.050;2023-03-19T03:25:00;98956.81;;;9.88;100.00
5703;BME280;2876;51.738;10.050;2023-03-19T03:31:02;98958.47;;;9.96;100.00
5703;BME280;2876;51.738;10.050;2023-03-19T03:37:04;98958.28;;;9.90;100.00
5703;BME280;2876;51.738;10.050;2023-03-19T03:43:06;98955.38;;;9.92;100.00
5703;BME280;2876;51.738;10.050;2023-03-19T03:49:08;98951.88;;;9.91;100.00
5703;BME280;2876;51.738;10.050;2023-03-19T03:55:10;98955.97;;;9.74;100.00
5703;BME280;2876;51.738;10.050;2023-03-19T04:01:15;98958.88;;;9.86;100.00
5703;BME280;2876;51.738;10.050;2023-03-19T04:07:17;98965.88;;;9.87;100.00
5703;BME280;2876;51.738;10.050;2023-03-19T04:13:19;98961.53;;;9.73;100.00
5703;BME280;2876;51.738;10.050;2023-03-19T04:19:21;98965.41;;;9.57;100.00
5703;BME280;2876;51.738;10.050;2023-03-19T04:25:23;98955.50;;;9.51;100.00
5703;BME280;2876;51.738;10.050;2023-03-19T04:31:25;98952.78;;;9.37;100.00
5703;BME280;2876;51.738;10.050;2023-03-19T04:37:28;98956.72;;;9.48;100.00
5703;BME280;2876;51.738;10.050;2023-03-19T04:43:30;98957.81;;;9.60;100.00
5703;BME280;2876;51.738;10.050;2023-03-19T04:49:33;98963.38;;;9.59;100.00
5703;BME280;2876;51.738;10.050;2023-03-19T04:55:35;98964.56;;;9.50;100.00
5703;BME280;2876;51.738;10.050;2023-03-19T05:01:37;98968.03;;;9.44;100.00
5703;BME280;2876;51.738;10.050;2023-03-19T05:07:40;98962.50;;;9.45;100.00
5703;BME280;2876;51.738;10.050;2023-03-19T05:13:42;98981.03;;;9.47;100.00
5703;BME280;2876;51.738;10.050;2023-03-19T05:19:44;98974.00;;;9.39;100.00
5703;BME280;2876;51.738;10.050;2023-03-19T05:25:46;98976.28;;;9.49;100.00
5703;BME280;2876;51.738;10.050;2023-03-19T05:31:49;98991.09;;;9.45;100.00
5703;BME280;2876;51.738;10.050;2023-03-19T05:37:52;98997.75;;;9.55;100.00
5703;BME280;2876;51.738;10.050;2023-03-19T05:43:54;98999.78;;;9.53;100.00
5703;BME280;2876;51.738;10.050;2023-03-19T05:49:56;99005.38;;;9.58;100.00
5703;BME280;2876;51.738;10.050;2023-03-19T05:55:58;98997.16;;;9.66;100.00
5703;BME280;2876;51.738;10.050;2023-03-19T06:02:00;98992.69;;;9.87;100.00
5703;BME280;2876;51.738;10.050;2023-03-19T06:08:02;98996.56;;;9.84;100.00
5703;BME280;2876;51.738;10.050;2023-03-19T06:14:05;99001.28;;;9.76;100.00
5703;BME280;2876;51.738;10.050;2023-03-19T06:20:08;99013.91;;;9.95;100.00
5703;BME280;2876;51.738;10.050;2023-03-19T06:26:11;99026.94;;;10.18;100.00
5703;BME280;2876;51.738;10.050;2023-03-19T06:32:13;99034.59;;;10.34;100.00
5703;BME280;2876;51.738;10.050;2023-03-19T06:38:15;99045.75;;;10.45;100.00
5703;BME280;2876;51.738;10.050;2023-03-19T06:44:17;99049.88;;;10.54;100.00
5703;BME280;2876;51.738;10.050;2023-03-19T06:50:19;99064.72;;;10.50;100.00
5703;BME280;2876;51.738;10.050;2023-03-19T06:56:22;99077.31;;;10.56;100.00
5703;BME280;2876;51.738;10.050;2023-03-19T07:02:24;99098.38;;;10.72;100.00
5703;BME280;2876;51.738;10.050;2023-03-19T07:08:27;99112.59;;;10.66;100.00
5703;BME280;2876;51.738;10.050;2023-03-19T07:14:30;99107.03;;;10.74;100.00
5703;BME280;2876;51.738;10.050;2023-03-19T07:20:32;99099.16;;;10.53;100.00
5703;BME280;2876;51.738;10.050;2023-03-19T07:26:35;99101.44;;;10.49;100.00
5703;BME280;2876;51.738;10.050;2023-03-19T07:32:37;99090.50;;;10.71;100.00
5703;BME280;2876;51.738;10.050;2023-03-19T07:38:39;99093.81;;;10.86;100.00
5703;BME280;2876;51.738;10.050;2023-03-19T07:44:41;99076.41;;;11.22;100.00
5703;BME280;2876;51.738;10.050;2023-03-19T07:50:43;99085.28;;;11.29;100.00
5703;BME280;2876;51.738;10.050;2023-03-19T07:56:45;99082.94;;;11.52;100.00
5703;BME280;2876;51.738;10.050;2023-03-19T08:02:47;99085.94;;;11.76;100.00
5703;BME280;2876;51.738;10.050;2023-03-19T08:08:49;99090.50;;;12.58;100.00
5703;BME280;2876;51.738;10.050;2023-03-19T08:14:51;99100.19;;;13.34;99.95
5703;BME280;2876;51.738;10.050;2023-03-19T08:20:54;99114.00;;;13.63;97.06
5703;BME280;2876;51.738;10.050;2023-03-19T08:26:56;99106.91;;;13.80;94.00
5703;BME280;2876;51.738;10.050;2023-03-19T08:32:58;99110.06;;;13.95;89.97
5703;BME280;2876;51.738;10.050;2023-03-19T08:39:00;99103.97;;;14.18;88.63
5703;BME280;2876;51.738;10.050;2023-03-19T08:45:03;99112.66;;;14.62;86.73
5703;BME280;2876;51.738;10.050;2023-03-19T08:51:05;99103.31;;;15.70;86.02
5703;BME280;2876;51.738;10.050;2023-03-19T08:57:07;99106.81;;;18.18;77.17
5703;BME280;2876;51.738;10.050;2023-03-19T09:03:09;99125.78;;;20.47;66.99
5703;BME280;2876;51.738;10.050;2023-03-19T09:09:11;99127.78;;;21.38;59.14
5703;BME280;2876;51.738;10.050;2023-03-19T09:15:13;99115.22;;;21.01;60.99
5703;BME280;2876;51.738;10.050;2023-03-19T09:21:15;99119.59;;;20.82;60.76
5703;BME280;2876;51.738;10.050;2023-03-19T09:27:17;99123.59;;;21.76;57.67
5703;BME280;2876;51.738;10.050;2023-03-19T09:33:20;99117.41;;;20.64;60.31
5703;BME280;2876;51.738;10.050;2023-03-19T09:39:22;99114.88;;;20.42;60.46
5703;BME280;2876;51.738;10.050;2023-03-19T09:45:27;99116.28;;;18.97;61.74
5703;BME280;2876;51.738;10.050;2023-03-19T09:52:05;99106.19;;;19.30;60.49
5703;BME280;2876;51.738;10.050;2023-03-19T09:58:18;99104.38;;;19.93;59.46
5703;BME280;2876;51.738;10.050;2023-03-19T10:11:02;99112.25;;;20.67;59.69
5703;BME280;2876;51.738;10.050;2023-03-19T10:17:37;99117.97;;;20.91;58.71
5703;BME280;2876;51.738;10.050;2023-03-19T10:24:05;99122.75;;;21.86;55.42
5703;BME280;2876;51.738;10.050;2023-03-19T10:30:15;99117.91;;;21.63;55.51
5703;BME280;2876;51.738;10.050;2023-03-19T10:36:19;99120.44;;;21.13;55.17
5703;BME280;2876;51.738;10.050;2023-03-19T10:43:15;99110.03;;;20.80;57.65
5703;BME280;2876;51.738;10.050;2023-03-19T10:49:18;99100.81;;;20.81;57.96
5703;BME280;2876;51.738;10.050;2023-03-19T10:55:25;99100.78;;;21.11;57.94
5703;BME280;2876;51.738;10.050;2023-03-19T11:01:39;99113.31;;;21.02;55.23
5703;BME280;2876;51.738;10.050;2023-03-19T11:07:42;99105.97;;;21.02;56.86
5703;BME280;2876;51.738;10.050;2023-03-19T11:13:46;99114.44;;;20.86;57.21
5703;BME280;2876;51.738;10.050;2023-03-19T11:19:57;99123.69;;;21.15;56.15
5703;BME280;2876;51.738;10.050;2023-03-19T11:26:00;99123.13;;;21.49;55.26
5703;BME280;2876;51.738;10.050;2023-03-19T11:45:48;99121.97;;;24.20;50.09
5703;BME280;2876;51.738;10.050;2023-03-19T12:05:16;99102.22;;;24.61;42.89
5703;BME280;2876;51.738;10.050;2023-03-19T12:50:08;99088.97;;;18.49;60.09
5703;BME280;2876;51.738;10.050;2023-03-19T12:56:55;99118.97;;;15.57;71.64
5703;BME280;2876;51.738;10.050;2023-03-19T13:15:46;99092.38;;;14.00;88.81
5703;BME280;2876;51.738;10.050;2023-03-19T13:21:54;99079.72;;;14.84;85.04
5703;BME280;2876;51.738;10.050;2023-03-19T13:27:58;99073.28;;;16.24;80.81
5703;BME280;2876;51.738;10.050;2023-03-19T13:34:19;99072.53;;;17.46;76.67
5703;BME280;2876;51.738;10.050;2023-03-19T13:40:55;99070.50;;;20.57;65.19
5703;BME280;2876;51.738;10.050;2023-03-19T13:59:53;99059.97;;;19.35;67.53
5703;BME280;2876;51.738;10.050;2023-03-19T14:05:56;99066.41;;;18.76;69.06
5703;BME280;2876;51.738;10.050;2023-03-19T14:12:40;99057.63;;;17.88;70.13
5703;BME280;2876;51.738;10.050;2023-03-19T14:18:43;99062.88;;;17.34;74.19
5703;BME280;2876;51.738;10.050;2023-03-19T14:31:54;99066.25;;;15.94;81.80
5703;BME280;2876;51.738;10.050;2023-03-19T14:38:00;99065.16;;;15.43;84.94
5703;BME280;2876;51.738;10.050;2023-03-19T14:57:46;99064.78;;;16.04;84.51
5703;BME280;2876;51.738;10.050;2023-03-19T15:04:14;99064.16;;;16.30;81.85
5703;BME280;2876;51.738;10.050;2023-03-19T15:10:20;99047.59;;;16.72;79.46
5703;BME280;2876;51.738;10.050;2023-03-19T15:17:02;99052.31;;;16.48;80.08
5703;BME280;2876;51.738;10.050;2023-03-19T15:23:10;99060.75;;;16.06;82.67
5703;BME280;2876;51.738;10.050;2023-03-19T15:29:32;99074.31;;;16.68;80.74
5703;BME280;2876;51.738;10.050;2023-03-19T15:35:35;99065.25;;;16.74;80.88
5703;BME280;2876;51.738;10.050;2023-03-19T15:41:43;99065.59;;;17.94;76.48
5703;BME280;2876;51.738;10.050;2023-03-19T15:48:10;99068.03;;;19.62;70.78
5703;BME280;2876;51.738;10.050;2023-03-19T15:54:19;99076.78;;;20.88;65.70
5703;BME280;2876;51.738;10.050;2023-03-19T16:00:22;99060.38;;;20.37;65.23
5703;BME280;2876;51.738;10.050;2023-03-19T16:06:31;99084.25;;;18.99;69.18
5703;BME280;2876;51.738;10.050;2023-03-19T16:12:39;99084.31;;;17.74;74.70
5703;BME280;2876;51.738;10.050;2023-03-19T16:18:54;99088.47;;;17.43;75.41
5703;BME280;2876;51.738;10.050;2023-03-19T16:24:56;99086.44;;;16.94;76.77
5703;BME280;2876;51.738;10.050;2023-03-19T16:30:59;99115.19;;;16.21;73.10
5703;BME280;2876;51.738;10.050;2023-03-19T16:37:01;99110.34;;;15.83;70.12
5703;BME280;2876;51.738;10.050;2023-03-19T16:43:15;99123.31;;;15.46;73.13
5703;BME280;2876;51.738;10.050;2023-03-19T16:49:17;99119.38;;;18.03;65.91
5703;BME280;2876;51.738;10.050;2023-03-19T16:55:27;99130.84;;;17.27;66.15
5703;BME280;2876;51.738;10.050;2023-03-19T17:01:32;99139.91;;;15.73;71.47
5703;BME280;2876;51.738;10.050;2023-03-19T17:07:34;99151.19;;;15.23;72.30
5703;BME280;2876;51.738;10.050;2023-03-19T17:13:36;99152.47;;;14.55;76.09
5703;BME280;2876;51.738;10.050;2023-03-19T17:19:44;99167.19;;;14.23;78.39
5703;BME280;2876;51.738;10.050;2023-03-19T17:25:47;99168.63;;;13.88;79.39
5703;BME280;2876;51.738;10.050;2023-03-19T17:31:49;99171.56;;;13.68;80.74
5703;BME280;2876;51.738;10.050;2023-03-19T17:37:51;99175.53;;;13.16;83.22
5703;BME280;2876;51.738;10.050;2023-03-19T17:43:53;99183.53;;;13.04;85.24
5703;BME280;2876;51.738;10.050;2023-03-19T17:49:56;99183.56;;;12.98;87.53
5703;BME280;2876;51.738;10.050;2023-03-19T17:55:58;99192.50;;;13.16;87.88
5703;BME280;2876;51.738;10.050;2023-03-19T18:02:00;99197.97;;;13.10;86.64
5703;BME280;2876;51.738;10.050;2023-03-19T18:08:02;99197.84;;;12.98;86.58
5703;BME280;2876;51.738;10.050;2023-03-19T18:14:04;99203.53;;;12.83;87.20
5703;BME280;2876;51.738;10.050;2023-03-19T18:20:06;99219.69;;;12.83;87.68
5703;BME280;2876;51.738;10.050;2023-03-19T18:26:12;99224.16;;;12.58;89.24
5703;BME280;2876;51.738;10.050;2023-03-19T18:32:28;99229.63;;;12.44;89.51
5703;BME280;2876;51.738;10.050;2023-03-19T18:38:31;99235.84;;;12.45;89.95
5703;BME280;2876;51.738;10.050;2023-03-19T18:44:33;99239.19;;;12.34;92.50
5703;BME280;2876;51.738;10.050;2023-03-19T18:50:35;99242.75;;;12.28;92.64
5703;BME280;2876;51.738;10.050;2023-03-19T18:56:37;99245.38;;;12.34;92.24
5703;BME280;2876;51.738;10.050;2023-03-19T19:02:40;99241.56;;;12.10;93.10
5703;BME280;2876;51.738;10.050;2023-03-19T19:08:42;99247.88;;;12.29;92.63
5703;BME280;2876;51.738;10.050;2023-03-19T19:14:45;99250.47;;;12.04;92.89
5703;BME280;2876;51.738;10.050;2023-03-19T19:20:49;99257.94;;;11.89;94.08
5703;BME280;2876;51.738;10.050;2023-03-19T19:26:52;99270.53;;;11.95;93.68
5703;BME280;2876;51.738;10.050;2023-03-19T19:32:55;99272.00;;;11.91;94.26
5703;BME280;2876;51.738;10.050;2023-03-19T19:38:58;99275.50;;;11.78;94.36
5703;BME280;2876;51.738;10.050;2023-03-19T19:45:00;99275.72;;;11.63;95.46
5703;BME280;2876;51.738;10.050;2023-03-19T19:51:04;99280.66;;;11.73;94.75
5703;BME280;2876;51.738;10.050;2023-03-19T19:57:19;99289.16;;;11.77;94.60
5703;BME280;2876;51.738;10.050;2023-03-19T20:03:30;99291.41;;;11.73;94.24
5703;BME280;2876;51.738;10.050;2023-03-19T20:09:32;99307.72;;;11.72;94.59
5703;BME280;2876;51.738;10.050;2023-03-19T20:15:34;99309.38;;;11.79;94.32
5703;BME280;2876;51.738;10.050;2023-03-19T20:21:37;99309.81;;;11.50;95.66
5703;BME280;2876;51.738;10.050;2023-03-19T20:27:40;99313.94;;;11.46;95.77
5703;BME280;2876;51.738;10.050;2023-03-19T20:33:42;99313.31;;;11.37;96.70
5703;BME280;2876;51.738;10.050;2023-03-19T20:39:44;99315.19;;;11.36;96.97
5703;BME280;2876;51.738;10.050;2023-03-19T20:45:47;99319.69;;;11.29;97.66
5703;BME280;2876;51.738;10.050;2023-03-19T20:51:49;99330.66;;;11.28;98.83
5703;BME280;2876;51.738;10.050;2023-03-19T20:57:51;99332.13;;;11.37;98.58
5703;BME280;2876;51.738;10.050;2023-03-19T21:03:54;99329.03;;;11.47;98.26
5703;BME280;2876;51.738;10.050;2023-03-19T21:09:56;99343.50;;;11.46;98.19
5703;BME280;2876;51.738;10.050;2023-03-19T21:15:59;99342.88;;;11.50;98.38
5703;BME280;2876;51.738;10.050;2023-03-19T21:22:01;99346.78;;;11.41;98.64
5703;BME280;2876;51.738;10.050;2023-03-19T21:28:08;99358.13;;;11.36;98.66
5703;BME280;2876;51.738;10.050;2023-03-19T21:34:13;99349.63;;;11.26;99.38
5703;BME280;2876;51.738;10.050;2023-03-19T21:40:23;99344.66;;;11.16;99.56
5703;BME280;2876;51.738;10.050;2023-03-19T21:46:28;99355.59;;;11.15;100.00
5703;BME280;2876;51.738;10.050;2023-03-19T21:52:31;99362.66;;;11.29;100.00
5703;BME280;2876;51.738;10.050;2023-03-19T21:58:51;99362.25;;;11.39;99.22
5703;BME280;2876;51.738;10.050;2023-03-19T22:04:54;99356.88;;;11.32;99.63
5703;BME280;2876;51.738;10.050;2023-03-19T22:10:57;99359.75;;;11.17;99.74
5703;BME280;2876;51.738;10.050;2023-03-19T22:17:00;99367.00;;;11.24;100.00
5703;BME280;2876;51.738;10.050;2023-03-19T22:23:02;99370.50;;;11.24;100.00
5703;BME280;2876;51.738;10.050;2023-03-19T22:29:13;99369.69;;;11.24;99.78
5703;BME280;2876;51.738;10.050;2023-03-19T22:35:17;99364.09;;;11.25;99.41
5703;BME280;2876;51.738;10.050;2023-03-19T22:41:32;99357.91;;;11.18;99.68
5703;BME280;2876;51.738;10.050;2023-03-19T22:47:37;99351.06;;;11.15;99.86
5703;BME280;2876;51.738;10.050;2023-03-19T22:53:39;99354.56;;;11.16;99.86
5703;BME280;2876;51.738;10.050;2023-03-19T22:59:41;99352.50;;;11.05;100.00
5703;BME280;2876;51.738;10.050;2023-03-19T23:05:57;99358.28;;;11.08;100.00
5703;BME280;2876;51.738;10.050;2023-03-19T23:12:01;99356.81;;;11.06;100.00
5703;BME280;2876;51.738;10.050;2023-03-19T23:18:16;99354.34;;;11.11;99.73
5703;BME280;2876;51.738;10.050;2023-03-19T23:24:20;99346.72;;;11.14;100.00
5703;BME280;2876;51.738;10.050;2023-03-19T23:30:26;99354.47;;;10.89;100.00
5703;BME280;2876;51.738;10.050;2023-03-19T23:36:29;99347.63;;;10.80;100.00
5703;BME280;2876;51.738;10.050;2023-03-19T23:42:31;99348.50;;;10.87;100.00
5703;BME280;2876;51.738;10.050;2023-03-19T23:48:36;99353.81;;;10.68;100.00
5703;BME280;2876;51.738;10.050;2023-03-19T23:54:41;99353.59;;;10.69;100.00
